Portada
Imágenes satélite Pronóstico 15 díasClimaPredicción Marítima Ciclones Rayo AeropuertosFAQ Noticias Acerca
El tiempo : Europa África América del Norte América del Sur Asia Australia-Oceanía Otros
Idiomas Contacto

Chichén Itzá, México

latitud: 20-38-30N, longitud: 088-26-58W, altitud: 31 m


METAR: MMCT 252047Z 01006KT 8SM SCT020 BKN200 27/19 A2997 RMK 8/108 MSGTX MMMD
TAF: falta

Hora: 20:48 (01:48 UTC)

Observación

El informe se hizo hace 5 horas y 1 minutos, a las 20:47 UTC
Viento 6 kt del norte
Temperatura 27°C
Humedad 62%
Presión 1015 hPa
Visibilidad: 12.9 km
Nubes dispersas a una altura de 2000 ft
Cielo nuboso a una altura de 20000 ft

Cambiar las unidades
La información que se ofrece en estas páginas está sujeta a una cláusula de exención de responsabilidad
El tiempo : Europa África América del Norte América del Sur Asia Australia-Oceanía Otros
Imágenes satélite Pronóstico 15 díasClimaPredicción Marítima Ciclones Rayo AeropuertosFAQ Idiomas Contacto Noticias Acerca